Weather at San Diego International Airport

Public forecast

Using degrees Fahrenheit for public forecast. Weather courtesy of forecast.io.

Current aviation weather report (METAR) for San Diego International Airport

Retrieved 2020/10/30 22:51 UTC (1 hour ago):

KSAN 302251Z 29008KT 10SM FEW200 SCT250 23/11 A2993 RMK AO2 SLP136 T02330111

Aviation forecast (TAF) for San Diego International Airport

Retrieved 2020/10/30 18:22 UTC (5 hours ago):

TAF KSAN 301720Z 3018/3124 29008KT P6SM SKC FM310100 VRB04KT P6SM SKC FM310700 VRB03KT 5SM BR FEW004 SCT200 FM311200 VRB04KT P6SM SCT200 FM311900 28008KT P6SM BKN200